Terminal Aerodrome Forecast
Issued by NWS

Home | Current Version | Previous Version | Text Only | Print | Product List | Glossary Off
Versions: 1 2 3 4 5 6 7 8 9 10 11 12 13 14 15 16 17 18 19

000
FTUS43 KGRB 281800 AAA
TAFATW
TAF AMD
KATW 281851Z 2819/2918 33008KT P6SM BKN060
     FM290000 31004KT P6SM SCT060 BKN100
     FM291600 32008KT P6SM SCT050 BKN090=

USA.gov is the U.S. government's official web portal to all federal, state and local government web resources and services.